Balcom, Illinois
Current Conditions -  °F | °C
As of 10:48 AM on Saturday 25 Oct 2014 (Local Time) from KMWA Reporting Station
Scattered Clouds Scattered Clouds  
Wind Chill: 21°   Ceiling: Unl
Heat Index: 21°   Visibility: 20mi
Dew Point: 17°   Wind: 8mph
Humidity: 78%   Direction: 300°WNW
Pressure: 30.05"   Gusts: NA
Location:  37.5014°N, 89.1464°W
Report Text: KMWA 251548Z 30007KT 20SM SCT200 21/17 A3005
Loading
Personal Weather Stations






























Interactive Weather Map
Tropical Storm Tracking
New forecast layout! Learn more

10-Day Weather Forecast

Advertisements
Track Severe Weather on mobile